LATI - LBSF

Guest
Details From LATI - Tirana Rinas
To LBSF - Sofia
Flight Number -
Tags generated
Created
Modified
Stats Distance 183 nm / 338 km
Max Altitude 17,100 ft / 5,212 m
Waypoints 3
Social Downloads 2
Likes 0
Share VATSIM

Download

Looking for another format? Having issues loading an existing format? Contact us
Advertisement - Login to hide

Notes

Basic altitude profile: - Ascent Rate: 2500ft/min - Ascent Speed: 250kts - Cruise Altitude: 35000ft - Cruise Speed: 420kts - Descent Rate: 1500ft/min - Descent Speed: 250kts Options: - Use NATs: yes - Use PACOTS: yes - Use low airways: yes - Use high airways: yes

Route

LATI OLOTA LBSF

ID Type Via Altitude Latitude Longitude Leg Dist Tot Dist Heading (true) Name
O LATI APT - 0 ft / 0 m 41.41473˚ 19.72057˚ - 0 nm - Tirana Rinas
OLOTA FIX - 17,100 ft / 5,212 m 42.23000˚ 21.61667˚ 97 nm 97 nm 59° / 61° -
O LBSF APT - 0 ft / 0 m 42.69713˚ 23.41672˚ 84 nm 182 nm 70° / 71° Sofia

Altitude Profile

Weather

Temperature
Clouds and Precipitation
Forecast for 2017-01-23 00:00 UTC. Updated an hour ago
Winds

LATI

Details ICAO LATI (TIA)
Name Tirana Rinas
Region Albania
Timezone Europe/Tirane (UTC+1.0)
Stats Elevation 126 ft / 38 m (AMSL)
Location 41.414732° 19.720569°
Runways 1
Magnetic Variation 4.140° E

METAR

LATI 222220Z 33004KT 6000 NSC 00/M02 Q1025 NOSIG

Decode

TAF

Not found

Departure Runways

ID Width Length Bearing (true) Bearing (mag) Surface Threshold Offset Overrun Length
18 148 ft / 45 m 8,984 ft / 2,738 m 174.31° 170.17° Asphalt 500 ft / 152 m 0 ft / 0 m
36 148 ft / 45 m 8,984 ft / 2,738 m 354.31° 350.17° Asphalt 500 ft / 152 m 0 ft / 0 m

LBSF

Details ICAO LBSF (SOF)
Name Sofia
Region Bulgaria
Timezone Europe/Sofia (UTC+2.0)
Stats Elevation 1,741 ft / 531 m (AMSL)
Location 42.697130° 23.416722°
Runways 1
Magnetic Variation 4.841° E

METAR

LBSF 222200Z VRB01KT 0300 R27/0350N FZFG VV002 M10/M10 Q1032 R99/19//95 NOSIG

Decode

TAF

TAF LBSF 221700Z 2218/2318 VRB04KT 0400 FZFG VV002 PROB30 TEMPO 2220/2204 1200 BR SCT002 BKN003 BECMG 2309/2310 1500 BR SCT004 BKN006 BECMG 2310/2312 11008KT 3000 BR SCT010 BKN020

Decode

Destination Runways

ID Width Length Bearing (true) Bearing (mag) Surface Threshold Offset Overrun Length
09 148 ft / 45 m 11,801 ft / 3,597 m 93.99° 89.15° Asphalt 984 ft / 300 m 525 ft / 160 m
27 148 ft / 45 m 11,801 ft / 3,597 m 274.02° 269.18° Asphalt 0 ft / 0 m 525 ft / 160 m

Approach Navaids

Runway Type Ident Frequency Range Bearing (true) Bearing (mag) Slope Elevation
09 Localiser ISL 110.70 MHz 18 nm / 33 km 93.91° 89.07° - 1,741 ft / 531 m (AMSL)
09 Glidescope ISL 110.70 MHz 10 nm / 19 km 95.00° 90.16° 3.00° 1,741 ft / 531 m (AMSL)
09 DME ISL 110.70 MHz 18 nm / 33 km - - - 1,741 ft / 531 m (AMSL)
27 Localiser ISF 109.50 MHz 18 nm / 33 km 273.91° 269.07° - 1,741 ft / 531 m (AMSL)
27 Glidescope ISF 109.50 MHz 10 nm / 19 km 275.00° 270.16° 3.00° 1,741 ft / 531 m (AMSL)